sensor_id;sensor_type;location;lat;lon;timestamp;P1;durP1;ratioP1;P2;durP2;ratioP2
65552;SDS011;52465;51.560;14.368;2022-10-16T00:01:06;3.55;;;3.08;;
65552;SDS011;52465;51.560;14.368;2022-10-16T00:03:32;4.10;;;3.40;;
65552;SDS011;52465;51.560;14.368;2022-10-16T00:05:58;4.05;;;3.08;;
65552;SDS011;52465;51.560;14.368;2022-10-16T00:08:25;3.45;;;2.92;;
65552;SDS011;52465;51.560;14.368;2022-10-16T00:10:51;4.18;;;2.85;;
65552;SDS011;52465;51.560;14.368;2022-10-16T00:13:16;3.60;;;2.70;;
65552;SDS011;52465;51.560;14.368;2022-10-16T00:15:42;4.57;;;3.53;;
65552;SDS011;52465;51.560;14.368;2022-10-16T00:18:09;3.45;;;3.10;;
65552;SDS011;52465;51.560;14.368;2022-10-16T00:20:36;3.80;;;2.60;;
65552;SDS011;52465;51.560;14.368;2022-10-16T00:23:02;3.80;;;3.13;;
65552;SDS011;52465;51.560;14.368;2022-10-16T00:25:28;3.90;;;3.00;;
65552;SDS011;52465;51.560;14.368;2022-10-16T00:27:54;4.07;;;2.92;;
65552;SDS011;52465;51.560;14.368;2022-10-16T00:30:19;3.97;;;3.10;;
65552;SDS011;52465;51.560;14.368;2022-10-16T00:32:44;3.80;;;3.20;;
65552;SDS011;52465;51.560;14.368;2022-10-16T00:35:10;4.07;;;3.22;;
65552;SDS011;52465;51.560;14.368;2022-10-16T00:37:35;3.95;;;2.95;;
65552;SDS011;52465;51.560;14.368;2022-10-16T00:40:00;3.17;;;2.85;;
65552;SDS011;52465;51.560;14.368;2022-10-16T00:42:25;3.70;;;2.90;;
65552;SDS011;52465;51.560;14.368;2022-10-16T00:44:55;3.28;;;2.90;;
65552;SDS011;52465;51.560;14.368;2022-10-16T00:47:24;4.80;;;3.30;;
65552;SDS011;52465;51.560;14.368;2022-10-16T00:49:53;4.85;;;3.03;;
65552;SDS011;52465;51.560;14.368;2022-10-16T00:52:24;3.47;;;2.95;;
65552;SDS011;52465;51.560;14.368;2022-10-16T00:54:50;4.15;;;3.17;;
65552;SDS011;52465;51.560;14.368;2022-10-16T00:57:17;3.75;;;2.88;;
65552;SDS011;52465;51.560;14.368;2022-10-16T00:59:42;3.97;;;2.97;;
65552;SDS011;52465;51.560;14.368;2022-10-16T01:02:09;4.05;;;3.30;;
65552;SDS011;52465;51.560;14.368;2022-10-16T01:04:37;3.42;;;2.80;;
65552;SDS011;52465;51.560;14.368;2022-10-16T01:12:40;3.47;;;2.70;;
65552;SDS011;52465;51.560;14.368;2022-10-16T01:15:15;4.90;;;3.47;;
65552;SDS011;52465;51.560;14.368;2022-10-16T01:18:06;4.60;;;3.20;;
65552;SDS011;52465;51.560;14.368;2022-10-16T01:20:42;3.70;;;2.70;;
65552;SDS011;52465;51.560;14.368;2022-10-16T01:25:59;3.23;;;2.93;;
65552;SDS011;52465;51.560;14.368;2022-10-16T01:28:51;3.85;;;3.00;;
65552;SDS011;52465;51.560;14.368;2022-10-16T01:31:23;4.68;;;2.92;;
65552;SDS011;52465;51.560;14.368;2022-10-16T01:33:56;4.47;;;3.20;;
65552;SDS011;52465;51.560;14.368;2022-10-16T01:36:29;4.40;;;3.05;;
65552;SDS011;52465;51.560;14.368;2022-10-16T01:39:00;4.13;;;2.92;;
65552;SDS011;52465;51.560;14.368;2022-10-16T01:41:33;4.30;;;3.38;;
65552;SDS011;52465;51.560;14.368;2022-10-16T01:44:07;3.70;;;2.67;;
65552;SDS011;52465;51.560;14.368;2022-10-16T01:46:36;3.55;;;3.20;;
65552;SDS011;52465;51.560;14.368;2022-10-16T01:49:04;4.10;;;2.85;;
65552;SDS011;52465;51.560;14.368;2022-10-16T01:51:31;3.92;;;3.03;;
65552;SDS011;52465;51.560;14.368;2022-10-16T01:53:58;3.78;;;3.00;;
65552;SDS011;52465;51.560;14.368;2022-10-16T01:56:26;4.35;;;2.88;;
65552;SDS011;52465;51.560;14.368;2022-10-16T01:58:55;4.53;;;3.05;;
65552;SDS011;52465;51.560;14.368;2022-10-16T02:01:26;3.90;;;2.92;;
65552;SDS011;52465;51.560;14.368;2022-10-16T02:03:55;3.33;;;2.47;;
65552;SDS011;52465;51.560;14.368;2022-10-16T02:06:24;3.22;;;2.80;;
65552;SDS011;52465;51.560;14.368;2022-10-16T02:08:50;3.95;;;2.92;;
65552;SDS011;52465;51.560;14.368;2022-10-16T02:11:16;3.88;;;2.67;;
65552;SDS011;52465;51.560;14.368;2022-10-16T02:16:10;3.95;;;2.97;;
65552;SDS011;52465;51.560;14.368;2022-10-16T02:18:37;4.97;;;2.90;;
65552;SDS011;52465;51.560;14.368;2022-10-16T02:21:05;3.42;;;3.00;;
65552;SDS011;52465;51.560;14.368;2022-10-16T02:23:42;3.35;;;2.80;;
65552;SDS011;52465;51.560;14.368;2022-10-16T02:26:28;3.70;;;3.13;;
65552;SDS011;52465;51.560;14.368;2022-10-16T02:29:05;4.63;;;3.40;;
65552;SDS011;52465;51.560;14.368;2022-10-16T02:31:35;3.38;;;2.83;;
65552;SDS011;52465;51.560;14.368;2022-10-16T02:34:06;3.47;;;2.72;;
65552;SDS011;52465;51.560;14.368;2022-10-16T02:36:32;3.33;;;2.58;;
65552;SDS011;52465;51.560;14.368;2022-10-16T02:39:00;2.88;;;2.60;;
65552;SDS011;52465;51.560;14.368;2022-10-16T02:41:28;3.55;;;2.80;;
65552;SDS011;52465;51.560;14.368;2022-10-16T02:43:54;3.88;;;3.05;;
65552;SDS011;52465;51.560;14.368;2022-10-16T02:46:19;3.28;;;2.80;;
65552;SDS011;52465;51.560;14.368;2022-10-16T02:48:45;3.33;;;2.60;;
65552;SDS011;52465;51.560;14.368;2022-10-16T02:51:11;3.33;;;2.92;;
65552;SDS011;52465;51.560;14.368;2022-10-16T02:53:36;3.70;;;3.08;;
65552;SDS011;52465;51.560;14.368;2022-10-16T02:56:01;3.35;;;2.75;;
65552;SDS011;52465;51.560;14.368;2022-10-16T02:58:26;4.50;;;2.72;;
65552;SDS011;52465;51.560;14.368;2022-10-16T03:00:52;3.40;;;2.85;;
65552;SDS011;52465;51.560;14.368;2022-10-16T03:03:17;3.97;;;2.58;;
65552;SDS011;52465;51.560;14.368;2022-10-16T03:05:43;4.30;;;3.30;;
65552;SDS011;52465;51.560;14.368;2022-10-16T03:08:10;4.15;;;3.10;;
65552;SDS011;52465;51.560;14.368;2022-10-16T03:10:36;4.03;;;3.08;;
65552;SDS011;52465;51.560;14.368;2022-10-16T03:13:01;2.95;;;2.42;;
65552;SDS011;52465;51.560;14.368;2022-10-16T03:15:26;3.63;;;2.85;;
65552;SDS011;52465;51.560;14.368;2022-10-16T03:17:53;3.00;;;2.45;;
65552;SDS011;52465;51.560;14.368;2022-10-16T03:20:18;3.33;;;2.92;;
65552;SDS011;52465;51.560;14.368;2022-10-16T03:22:43;3.35;;;2.80;;
65552;SDS011;52465;51.560;14.368;2022-10-16T03:25:08;3.58;;;2.67;;
65552;SDS011;52465;51.560;14.368;2022-10-16T03:27:34;4.18;;;2.83;;
65552;SDS011;52465;51.560;14.368;2022-10-16T03:29:59;3.13;;;2.45;;
65552;SDS011;52465;51.560;14.368;2022-10-16T03:32:24;3.40;;;2.53;;
65552;SDS011;52465;51.560;14.368;2022-10-16T03:34:50;3.40;;;2.92;;
65552;SDS011;52465;51.560;14.368;2022-10-16T03:37:15;3.67;;;3.08;;
65552;SDS011;52465;51.560;14.368;2022-10-16T03:39:40;3.58;;;2.63;;
65552;SDS011;52465;51.560;14.368;2022-10-16T03:42:05;3.20;;;2.90;;
65552;SDS011;52465;51.560;14.368;2022-10-16T03:44:31;3.85;;;2.80;;
65552;SDS011;52465;51.560;14.368;2022-10-16T03:46:56;3.20;;;2.63;;
65552;SDS011;52465;51.560;14.368;2022-10-16T03:49:21;3.03;;;2.67;;
65552;SDS011;52465;51.560;14.368;2022-10-16T03:51:47;3.63;;;3.00;;
65552;SDS011;52465;51.560;14.368;2022-10-16T03:54:12;3.03;;;2.72;;
65552;SDS011;52465;51.560;14.368;2022-10-16T03:56:37;5.78;;;2.78;;
65552;SDS011;52465;51.560;14.368;2022-10-16T03:59:03;3.17;;;2.80;;
65552;SDS011;52465;51.560;14.368;2022-10-16T04:01:28;3.90;;;2.85;;
65552;SDS011;52465;51.560;14.368;2022-10-16T04:03:53;4.32;;;3.03;;
65552;SDS011;52465;51.560;14.368;2022-10-16T04:06:19;4.13;;;3.00;;
65552;SDS011;52465;51.560;14.368;2022-10-16T04:08:44;3.42;;;2.60;;
65552;SDS011;52465;51.560;14.368;2022-10-16T04:11:09;4.15;;;2.80;;
65552;SDS011;52465;51.560;14.368;2022-10-16T04:13:35;3.58;;;2.90;;
65552;SDS011;52465;51.560;14.368;2022-10-16T04:16:00;3.33;;;2.47;;
65552;SDS011;52465;51.560;14.368;2022-10-16T04:18:25;3.80;;;2.90;;
65552;SDS011;52465;51.560;14.368;2022-10-16T04:20:52;3.58;;;2.72;;
65552;SDS011;52465;51.560;14.368;2022-10-16T04:23:18;3.00;;;2.70;;
65552;SDS011;52465;51.560;14.368;2022-10-16T04:25:43;3.47;;;2.88;;
65552;SDS011;52465;51.560;14.368;2022-10-16T04:28:08;3.65;;;2.88;;
65552;SDS011;52465;51.560;14.368;2022-10-16T04:30:33;3.30;;;2.78;;
65552;SDS011;52465;51.560;14.368;2022-10-16T04:32:59;3.58;;;2.80;;
65552;SDS011;52465;51.560;14.368;2022-10-16T04:35:24;4.00;;;2.65;;
65552;SDS011;52465;51.560;14.368;2022-10-16T04:37:49;3.45;;;2.70;;
65552;SDS011;52465;51.560;14.368;2022-10-16T04:40:15;3.10;;;2.47;;
65552;SDS011;52465;51.560;14.368;2022-10-16T04:42:41;3.67;;;2.72;;
65552;SDS011;52465;51.560;14.368;2022-10-16T04:45:06;3.45;;;2.80;;
65552;SDS011;52465;51.560;14.368;2022-10-16T04:47:33;3.65;;;2.90;;
65552;SDS011;52465;51.560;14.368;2022-10-16T04:49:58;3.13;;;2.70;;
65552;SDS011;52465;51.560;14.368;2022-10-16T04:52:25;2.67;;;2.42;;
65552;SDS011;52465;51.560;14.368;2022-10-16T04:54:51;4.22;;;2.60;;
65552;SDS011;52465;51.560;14.368;2022-10-16T04:57:16;3.58;;;2.80;;
65552;SDS011;52465;51.560;14.368;2022-10-16T04:59:42;4.13;;;2.97;;
65552;SDS011;52465;51.560;14.368;2022-10-16T05:02:07;2.88;;;2.58;;
65552;SDS011;52465;51.560;14.368;2022-10-16T05:04:32;3.33;;;2.90;;
65552;SDS011;52465;51.560;14.368;2022-10-16T05:06:58;3.53;;;2.65;;
65552;SDS011;52465;51.560;14.368;2022-10-16T05:09:23;3.20;;;2.47;;
65552;SDS011;52465;51.560;14.368;2022-10-16T05:11:48;3.40;;;2.72;;
65552;SDS011;52465;51.560;14.368;2022-10-16T05:14:13;3.28;;;2.50;;
65552;SDS011;52465;51.560;14.368;2022-10-16T05:16:39;3.20;;;2.60;;
65552;SDS011;52465;51.560;14.368;2022-10-16T05:19:04;4.32;;;2.78;;
65552;SDS011;52465;51.560;14.368;2022-10-16T05:21:29;4.28;;;2.85;;
65552;SDS011;52465;51.560;14.368;2022-10-16T05:23:54;3.03;;;2.72;;
65552;SDS011;52465;51.560;14.368;2022-10-16T05:26:20;3.42;;;2.95;;
65552;SDS011;52465;51.560;14.368;2022-10-16T05:28:45;3.38;;;2.60;;
65552;SDS011;52465;51.560;14.368;2022-10-16T05:31:11;4.25;;;3.08;;
65552;SDS011;52465;51.560;14.368;2022-10-16T05:33:36;3.92;;;2.90;;
65552;SDS011;52465;51.560;14.368;2022-10-16T05:36:05;3.58;;;2.78;;
65552;SDS011;52465;51.560;14.368;2022-10-16T05:38:33;3.55;;;2.92;;
65552;SDS011;52465;51.560;14.368;2022-10-16T05:40:59;2.60;;;2.30;;
65552;SDS011;52465;51.560;14.368;2022-10-16T05:43:24;3.67;;;2.30;;
65552;SDS011;52465;51.560;14.368;2022-10-16T05:45:56;3.10;;;2.53;;
65552;SDS011;52465;51.560;14.368;2022-10-16T05:48:26;3.55;;;2.90;;
65552;SDS011;52465;51.560;14.368;2022-10-16T05:50:59;2.85;;;2.22;;
65552;SDS011;52465;51.560;14.368;2022-10-16T05:53:29;3.10;;;2.63;;
65552;SDS011;52465;51.560;14.368;2022-10-16T05:55:56;3.40;;;2.67;;
65552;SDS011;52465;51.560;14.368;2022-10-16T05:58:21;3.42;;;2.92;;
65552;SDS011;52465;51.560;14.368;2022-10-16T06:00:58;3.40;;;2.60;;
65552;SDS011;52465;51.560;14.368;2022-10-16T06:03:26;3.45;;;2.92;;
65552;SDS011;52465;51.560;14.368;2022-10-16T06:05:52;3.55;;;2.90;;
65552;SDS011;52465;51.560;14.368;2022-10-16T06:08:18;3.38;;;2.80;;
65552;SDS011;52465;51.560;14.368;2022-10-16T06:10:44;3.22;;;2.70;;
65552;SDS011;52465;51.560;14.368;2022-10-16T06:13:13;3.22;;;2.90;;
65552;SDS011;52465;51.560;14.368;2022-10-16T06:15:39;3.33;;;2.75;;
65552;SDS011;52465;51.560;14.368;2022-10-16T06:18:07;3.20;;;2.75;;
65552;SDS011;52465;51.560;14.368;2022-10-16T06:20:32;3.42;;;2.60;;
65552;SDS011;52465;51.560;14.368;2022-10-16T06:22:58;2.75;;;2.55;;
65552;SDS011;52465;51.560;14.368;2022-10-16T06:25:23;3.15;;;2.50;;
65552;SDS011;52465;51.560;14.368;2022-10-16T06:27:48;3.08;;;2.55;;
65552;SDS011;52465;51.560;14.368;2022-10-16T06:30:13;3.05;;;2.60;;
65552;SDS011;52465;51.560;14.368;2022-10-16T06:32:39;3.40;;;2.60;;
65552;SDS011;52465;51.560;14.368;2022-10-16T06:35:04;2.85;;;2.50;;
65552;SDS011;52465;51.560;14.368;2022-10-16T06:37:29;3.05;;;2.75;;
65552;SDS011;52465;51.560;14.368;2022-10-16T06:39:55;3.42;;;2.67;;
65552;SDS011;52465;51.560;14.368;2022-10-16T06:42:20;2.65;;;2.25;;
65552;SDS011;52465;51.560;14.368;2022-10-16T06:44:45;2.83;;;2.45;;
65552;SDS011;52465;51.560;14.368;2022-10-16T06:47:11;2.60;;;2.35;;
65552;SDS011;52465;51.560;14.368;2022-10-16T06:49:36;3.55;;;2.80;;
65552;SDS011;52465;51.560;14.368;2022-10-16T06:52:01;3.22;;;2.65;;
65552;SDS011;52465;51.560;14.368;2022-10-16T06:54:27;3.28;;;2.55;;
65552;SDS011;52465;51.560;14.368;2022-10-16T06:56:53;3.35;;;2.72;;
65552;SDS011;52465;51.560;14.368;2022-10-16T06:59:19;2.95;;;2.60;;
65552;SDS011;52465;51.560;14.368;2022-10-16T07:01:45;2.72;;;2.35;;
65552;SDS011;52465;51.560;14.368;2022-10-16T07:04:11;2.60;;;2.40;;
65552;SDS011;52465;51.560;14.368;2022-10-16T07:06:36;4.47;;;2.80;;
65552;SDS011;52465;51.560;14.368;2022-10-16T07:09:06;3.22;;;2.75;;
65552;SDS011;52465;51.560;14.368;2022-10-16T07:11:33;3.50;;;2.70;;
65552;SDS011;52465;51.560;14.368;2022-10-16T07:13:59;3.22;;;2.40;;
65552;SDS011;52465;51.560;14.368;2022-10-16T07:16:25;3.25;;;2.90;;
65552;SDS011;52465;51.560;14.368;2022-10-16T07:18:53;3.22;;;2.78;;
65552;SDS011;52465;51.560;14.368;2022-10-16T07:23:51;2.83;;;2.45;;
65552;SDS011;52465;51.560;14.368;2022-10-16T07:26:16;3.65;;;2.63;;
65552;SDS011;52465;51.560;14.368;2022-10-16T07:28:43;3.50;;;2.90;;
65552;SDS011;52465;51.560;14.368;2022-10-16T07:31:11;3.33;;;2.65;;
65552;SDS011;52465;51.560;14.368;2022-10-16T07:33:38;3.28;;;2.72;;
65552;SDS011;52465;51.560;14.368;2022-10-16T07:36:05;3.97;;;3.00;;
65552;SDS011;52465;51.560;14.368;2022-10-16T07:38:30;3.10;;;2.53;;
65552;SDS011;52465;51.560;14.368;2022-10-16T07:41:00;3.95;;;2.75;;
65552;SDS011;52465;51.560;14.368;2022-10-16T07:43:27;5.38;;;3.03;;
65552;SDS011;52465;51.560;14.368;2022-10-16T07:45:53;3.45;;;2.70;;
65552;SDS011;52465;51.560;14.368;2022-10-16T07:48:20;4.38;;;2.92;;
65552;SDS011;52465;51.560;14.368;2022-10-16T07:50:45;3.15;;;2.47;;
65552;SDS011;52465;51.560;14.368;2022-10-16T07:53:11;3.10;;;2.40;;
65552;SDS011;52465;51.560;14.368;2022-10-16T07:55:36;3.20;;;2.58;;
65552;SDS011;52465;51.560;14.368;2022-10-16T07:58:02;2.83;;;2.50;;
65552;SDS011;52465;51.560;14.368;2022-10-16T08:00:28;4.35;;;3.00;;
65552;SDS011;52465;51.560;14.368;2022-10-16T08:02:53;3.10;;;2.83;;
65552;SDS011;52465;51.560;14.368;2022-10-16T08:05:18;3.05;;;2.50;;
65552;SDS011;52465;51.560;14.368;2022-10-16T08:07:48;3.25;;;2.53;;
65552;SDS011;52465;51.560;14.368;2022-10-16T08:10:18;3.30;;;2.72;;
65552;SDS011;52465;51.560;14.368;2022-10-16T08:12:44;3.17;;;2.80;;
65552;SDS011;52465;51.560;14.368;2022-10-16T08:15:10;3.72;;;2.78;;
65552;SDS011;52465;51.560;14.368;2022-10-16T08:17:35;3.67;;;2.65;;
65552;SDS011;52465;51.560;14.368;2022-10-16T08:20:00;3.50;;;2.80;;
65552;SDS011;52465;51.560;14.368;2022-10-16T08:22:26;2.95;;;2.53;;
65552;SDS011;52465;51.560;14.368;2022-10-16T08:24:52;3.50;;;2.67;;
65552;SDS011;52465;51.560;14.368;2022-10-16T08:27:17;3.58;;;2.80;;
65552;SDS011;52465;51.560;14.368;2022-10-16T08:29:42;4.07;;;2.88;;
65552;SDS011;52465;51.560;14.368;2022-10-16T08:32:07;3.25;;;2.75;;
65552;SDS011;52465;51.560;14.368;2022-10-16T08:34:33;3.47;;;2.83;;
65552;SDS011;52465;51.560;14.368;2022-10-16T08:36:58;3.35;;;2.72;;
65552;SDS011;52465;51.560;14.368;2022-10-16T08:39:23;3.30;;;2.50;;
65552;SDS011;52465;51.560;14.368;2022-10-16T08:50:31;3.80;;;2.70;;
65552;SDS011;52465;51.560;14.368;2022-10-16T08:53:00;3.85;;;3.03;;
65552;SDS011;52465;51.560;14.368;2022-10-16T08:55:33;3.45;;;2.70;;
65552;SDS011;52465;51.560;14.368;2022-10-16T08:58:10;3.35;;;2.53;;
65552;SDS011;52465;51.560;14.368;2022-10-16T09:00:38;2.85;;;2.42;;
65552;SDS011;52465;51.560;14.368;2022-10-16T09:08:16;3.27;;;2.97;;
65552;SDS011;52465;51.560;14.368;2022-10-16T09:10:59;3.70;;;2.57;;
65552;SDS011;52465;51.560;14.368;2022-10-16T09:13:58;4.20;;;2.50;;
65552;SDS011;52465;51.560;14.368;2022-10-16T09:16:46;3.00;;;2.28;;
65552;SDS011;52465;51.560;14.368;2022-10-16T09:19:20;2.67;;;2.00;;
65552;SDS011;52465;51.560;14.368;2022-10-16T09:21:53;3.10;;;2.50;;
65552;SDS011;52465;51.560;14.368;2022-10-16T09:24:21;2.97;;;2.30;;
65552;SDS011;52465;51.560;14.368;2022-10-16T09:26:50;2.80;;;2.00;;
65552;SDS011;52465;51.560;14.368;2022-10-16T09:29:16;2.83;;;2.10;;
65552;SDS011;52465;51.560;14.368;2022-10-16T09:31:45;3.22;;;2.78;;
65552;SDS011;52465;51.560;14.368;2022-10-16T09:36:59;2.97;;;2.53;;
65552;SDS011;52465;51.560;14.368;2022-10-16T09:39:27;4.20;;;2.78;;
65552;SDS011;52465;51.560;14.368;2022-10-16T09:41:53;2.85;;;2.28;;
65552;SDS011;52465;51.560;14.368;2022-10-16T09:44:24;2.85;;;2.45;;
65552;SDS011;52465;51.560;14.368;2022-10-16T09:47:02;2.72;;;2.40;;
65552;SDS011;52465;51.560;14.368;2022-10-16T09:49:29;2.50;;;2.22;;
65552;SDS011;52465;51.560;14.368;2022-10-16T09:52:05;3.70;;;2.38;;
65552;SDS011;52465;51.560;14.368;2022-10-16T09:54:36;3.70;;;2.30;;
65552;SDS011;52465;51.560;14.368;2022-10-16T09:57:05;2.90;;;2.47;;
65552;SDS011;52465;51.560;14.368;2022-10-16T10:02:00;2.83;;;2.40;;
65552;SDS011;52465;51.560;14.368;2022-10-16T10:04:36;2.65;;;2.20;;
65552;SDS011;52465;51.560;14.368;2022-10-16T10:07:05;4.38;;;2.40;;
65552;SDS011;52465;51.560;14.368;2022-10-16T10:09:38;2.63;;;2.25;;
65552;SDS011;52465;51.560;14.368;2022-10-16T10:12:04;2.67;;;1.77;;
65552;SDS011;52465;51.560;14.368;2022-10-16T10:14:43;2.72;;;2.42;;
65552;SDS011;52465;51.560;14.368;2022-10-16T10:19:46;2.40;;;2.00;;
65552;SDS011;52465;51.560;14.368;2022-10-16T10:22:24;2.28;;;1.90;;
65552;SDS011;52465;51.560;14.368;2022-10-16T10:27:27;2.35;;;1.77;;
65552;SDS011;52465;51.560;14.368;2022-10-16T10:30:06;1.98;;;1.77;;
65552;SDS011;52465;51.560;14.368;2022-10-16T10:32:42;1.98;;;1.75;;
65552;SDS011;52465;51.560;14.368;2022-10-16T10:35:26;4.68;;;1.92;;
65552;SDS011;52465;51.560;14.368;2022-10-16T10:38:16;2.10;;;1.90;;
65552;SDS011;52465;51.560;14.368;2022-10-16T10:41:07;2.20;;;2.00;;
65552;SDS011;52465;51.560;14.368;2022-10-16T10:43:56;2.30;;;1.83;;
65552;SDS011;52465;51.560;14.368;2022-10-16T10:49:16;2.60;;;2.10;;
65552;SDS011;52465;51.560;14.368;2022-10-16T10:54:26;1.98;;;1.77;;
65552;SDS011;52465;51.560;14.368;2022-10-16T11:02:10;2.28;;;1.90;;
65552;SDS011;52465;51.560;14.368;2022-10-16T11:04:48;3.28;;;1.90;;
65552;SDS011;52465;51.560;14.368;2022-10-16T11:07:19;3.00;;;2.03;;
65552;SDS011;52465;51.560;14.368;2022-10-16T11:09:52;1.88;;;1.65;;
65552;SDS011;52465;51.560;14.368;2022-10-16T11:12:29;3.17;;;1.90;;
65552;SDS011;52465;51.560;14.368;2022-10-16T11:18:03;2.40;;;1.90;;
65552;SDS011;52465;51.560;14.368;2022-10-16T11:20:42;2.50;;;1.95;;
65552;SDS011;52465;51.560;14.368;2022-10-16T11:23:21;2.53;;;1.98;;
65552;SDS011;52465;51.560;14.368;2022-10-16T11:26:00;2.08;;;1.80;;
65552;SDS011;52465;51.560;14.368;2022-10-16T11:28:35;3.78;;;1.90;;
65552;SDS011;52465;51.560;14.368;2022-10-16T11:31:08;2.42;;;1.80;;
65552;SDS011;52465;51.560;14.368;2022-10-16T11:39:27;1.67;;;1.40;;
65552;SDS011;52465;51.560;14.368;2022-10-16T11:41:55;1.60;;;1.40;;
65552;SDS011;52465;51.560;14.368;2022-10-16T11:44:34;2.00;;;1.45;;
65552;SDS011;52465;51.560;14.368;2022-10-16T11:49:38;2.33;;;1.60;;
65552;SDS011;52465;51.560;14.368;2022-10-16T11:52:20;1.60;;;1.50;;
65552;SDS011;52465;51.560;14.368;2022-10-16T11:55:13;1.40;;;1.30;;
65552;SDS011;52465;51.560;14.368;2022-10-16T11:57:49;1.63;;;1.42;;
65552;SDS011;52465;51.560;14.368;2022-10-16T12:00:23;2.85;;;1.30;;
65552;SDS011;52465;51.560;14.368;2022-10-16T12:02:55;1.45;;;1.30;;
65552;SDS011;52465;51.560;14.368;2022-10-16T12:05:50;1.30;;;1.20;;
65552;SDS011;52465;51.560;14.368;2022-10-16T12:08:23;1.73;;;1.45;;
65552;SDS011;52465;51.560;14.368;2022-10-16T12:10:49;2.03;;;1.60;;
65552;SDS011;52465;51.560;14.368;2022-10-16T12:13:34;1.80;;;1.60;;
65552;SDS011;52465;51.560;14.368;2022-10-16T12:18:36;2.33;;;1.30;;
65552;SDS011;52465;51.560;14.368;2022-10-16T12:21:01;1.30;;;1.20;;
65552;SDS011;52465;51.560;14.368;2022-10-16T12:23:30;1.95;;;1.55;;
65552;SDS011;52465;51.560;14.368;2022-10-16T12:25:58;1.48;;;1.38;;
65552;SDS011;52465;51.560;14.368;2022-10-16T12:28:26;1.63;;;1.30;;
65552;SDS011;52465;51.560;14.368;2022-10-16T12:30:54;1.60;;;1.48;;
65552;SDS011;52465;51.560;14.368;2022-10-16T12:33:30;1.85;;;1.50;;
65552;SDS011;52465;51.560;14.368;2022-10-16T12:36:03;1.90;;;1.35;;
65552;SDS011;52465;51.560;14.368;2022-10-16T12:38:38;1.70;;;1.60;;
65552;SDS011;52465;51.560;14.368;2022-10-16T12:41:11;1.67;;;1.42;;
65552;SDS011;52465;51.560;14.368;2022-10-16T12:43:45;2.10;;;1.40;;
65552;SDS011;52465;51.560;14.368;2022-10-16T12:48:37;1.70;;;1.47;;
65552;SDS011;52465;51.560;14.368;2022-10-16T12:51:23;1.70;;;1.30;;
65552;SDS011;52465;51.560;14.368;2022-10-16T12:54:02;2.03;;;1.40;;
65552;SDS011;52465;51.560;14.368;2022-10-16T13:00:04;1.63;;;1.35;;
65552;SDS011;52465;51.560;14.368;2022-10-16T13:02:45;1.38;;;1.27;;
65552;SDS011;52465;51.560;14.368;2022-10-16T13:05:20;2.05;;;1.20;;
65552;SDS011;52465;51.560;14.368;2022-10-16T13:10:56;2.17;;;1.30;;
65552;SDS011;52465;51.560;14.368;2022-10-16T13:13:54;1.95;;;1.40;;
65552;SDS011;52465;51.560;14.368;2022-10-16T13:22:03;1.30;;;1.20;;
65552;SDS011;52465;51.560;14.368;2022-10-16T13:27:35;1.40;;;1.20;;
65552;SDS011;52465;51.560;14.368;2022-10-16T13:30:09;1.30;;;1.20;;
65552;SDS011;52465;51.560;14.368;2022-10-16T13:32:38;1.83;;;1.50;;
65552;SDS011;52465;51.560;14.368;2022-10-16T13:35:15;1.20;;;1.10;;
65552;SDS011;52465;51.560;14.368;2022-10-16T13:37:44;1.65;;;1.10;;
65552;SDS011;52465;51.560;14.368;2022-10-16T13:40:18;1.42;;;1.20;;
65552;SDS011;52465;51.560;14.368;2022-10-16T13:42:45;1.90;;;1.17;;
65552;SDS011;52465;51.560;14.368;2022-10-16T13:45:18;1.88;;;1.40;;
65552;SDS011;52465;51.560;14.368;2022-10-16T13:47:44;1.38;;;1.05;;
65552;SDS011;52465;51.560;14.368;2022-10-16T13:50:13;1.60;;;1.20;;
65552;SDS011;52465;51.560;14.368;2022-10-16T13:52:40;1.33;;;1.23;;
65552;SDS011;52465;51.560;14.368;2022-10-16T13:55:11;1.30;;;1.20;;
65552;SDS011;52465;51.560;14.368;2022-10-16T13:57:41;1.30;;;1.20;;
65552;SDS011;52465;51.560;14.368;2022-10-16T14:00:17;1.63;;;1.42;;
65552;SDS011;52465;51.560;14.368;2022-10-16T14:02:51;1.20;;;1.10;;
65552;SDS011;52465;51.560;14.368;2022-10-16T14:05:23;1.45;;;1.35;;
65552;SDS011;52465;51.560;14.368;2022-10-16T14:07:49;1.30;;;1.20;;
65552;SDS011;52465;51.560;14.368;2022-10-16T14:10:26;1.20;;;1.10;;
65552;SDS011;52465;51.560;14.368;2022-10-16T14:12:56;1.40;;;1.30;;
65552;SDS011;52465;51.560;14.368;2022-10-16T14:15:23;2.20;;;1.40;;
65552;SDS011;52465;51.560;14.368;2022-10-16T14:17:49;1.38;;;1.23;;
65552;SDS011;52465;51.560;14.368;2022-10-16T14:20:16;0.93;;;0.93;;
65552;SDS011;52465;51.560;14.368;2022-10-16T14:22:43;2.10;;;1.20;;
65552;SDS011;52465;51.560;14.368;2022-10-16T14:27:58;1.75;;;1.30;;
65552;SDS011;52465;51.560;14.368;2022-10-16T14:30:27;1.25;;;1.15;;
65552;SDS011;52465;51.560;14.368;2022-10-16T14:32:54;1.30;;;1.20;;
65552;SDS011;52465;51.560;14.368;2022-10-16T14:35:32;1.83;;;1.13;;
65552;SDS011;52465;51.560;14.368;2022-10-16T14:38:02;2.03;;;1.38;;
65552;SDS011;52465;51.560;14.368;2022-10-16T14:40:30;1.85;;;1.20;;
65552;SDS011;52465;51.560;14.368;2022-10-16T14:42:57;1.90;;;1.40;;
65552;SDS011;52465;51.560;14.368;2022-10-16T14:45:30;1.25;;;1.15;;
65552;SDS011;52465;51.560;14.368;2022-10-16T14:47:58;1.73;;;1.30;;
65552;SDS011;52465;51.560;14.368;2022-10-16T14:50:26;1.40;;;1.20;;
65552;SDS011;52465;51.560;14.368;2022-10-16T14:52:51;1.20;;;1.10;;
65552;SDS011;52465;51.560;14.368;2022-10-16T14:55:17;1.20;;;1.10;;
65552;SDS011;52465;51.560;14.368;2022-10-16T14:57:42;1.40;;;1.30;;
65552;SDS011;52465;51.560;14.368;2022-10-16T15:00:10;1.20;;;1.10;;
65552;SDS011;52465;51.560;14.368;2022-10-16T15:02:41;1.40;;;1.20;;
65552;SDS011;52465;51.560;14.368;2022-10-16T15:05:12;1.20;;;1.10;;
65552;SDS011;52465;51.560;14.368;2022-10-16T15:07:47;1.42;;;1.27;;
65552;SDS011;52465;51.560;14.368;2022-10-16T15:10:14;1.60;;;1.23;;
65552;SDS011;52465;51.560;14.368;2022-10-16T15:12:40;1.60;;;1.15;;
65552;SDS011;52465;51.560;14.368;2022-10-16T15:17:57;1.05;;;0.95;;
65552;SDS011;52465;51.560;14.368;2022-10-16T15:20:26;1.45;;;1.35;;
65552;SDS011;52465;51.560;14.368;2022-10-16T15:22:52;1.17;;;1.10;;
65552;SDS011;52465;51.560;14.368;2022-10-16T15:27:58;1.30;;;1.20;;
65552;SDS011;52465;51.560;14.368;2022-10-16T15:30:24;1.30;;;1.15;;
65552;SDS011;52465;51.560;14.368;2022-10-16T15:32:49;1.60;;;1.30;;
65552;SDS011;52465;51.560;14.368;2022-10-16T15:35:15;1.20;;;1.10;;
65552;SDS011;52465;51.560;14.368;2022-10-16T15:37:40;1.42;;;1.20;;
65552;SDS011;52465;51.560;14.368;2022-10-16T15:40:05;1.52;;;1.25;;
65552;SDS011;52465;51.560;14.368;2022-10-16T15:42:31;1.30;;;1.20;;
65552;SDS011;52465;51.560;14.368;2022-10-16T15:44:56;1.55;;;1.00;;
65552;SDS011;52465;51.560;14.368;2022-10-16T15:47:22;1.40;;;1.30;;
65552;SDS011;52465;51.560;14.368;2022-10-16T15:49:47;1.30;;;1.20;;
65552;SDS011;52465;51.560;14.368;2022-10-16T15:52:12;1.55;;;1.30;;
65552;SDS011;52465;51.560;14.368;2022-10-16T15:54:37;2.20;;;1.20;;
65552;SDS011;52465;51.560;14.368;2022-10-16T15:57:03;1.40;;;1.30;;
65552;SDS011;52465;51.560;14.368;2022-10-16T15:59:28;1.00;;;0.90;;
65552;SDS011;52465;51.560;14.368;2022-10-16T16:01:53;1.30;;;1.20;;
65552;SDS011;52465;51.560;14.368;2022-10-16T16:04:18;1.20;;;1.10;;
65552;SDS011;52465;51.560;14.368;2022-10-16T16:06:44;1.00;;;1.00;;
65552;SDS011;52465;51.560;14.368;2022-10-16T16:09:09;1.23;;;1.13;;
65552;SDS011;52465;51.560;14.368;2022-10-16T16:11:35;1.10;;;1.02;;